sensor_id;sensor_type;location;lat;lon;timestamp;pressure;altitude;pressure_sealevel;temperature;humidity
9905;BME280;4991;43.566;27.820;2023-07-30T00:00:56;98585.84;;;19.16;100.00
9905;BME280;4991;43.566;27.820;2023-07-30T00:03:21;98576.03;;;19.18;100.00
9905;BME280;4991;43.566;27.820;2023-07-30T00:05:56;98579.22;;;19.20;100.00
9905;BME280;4991;43.566;27.820;2023-07-30T00:08:22;98574.44;;;19.17;100.00
9905;BME280;4991;43.566;27.820;2023-07-30T00:10:49;98575.53;;;19.13;100.00
9905;BME280;4991;43.566;27.820;2023-07-30T00:13:18;98569.50;;;19.07;100.00
9905;BME280;4991;43.566;27.820;2023-07-30T00:15:46;98568.66;;;19.03;100.00
9905;BME280;4991;43.566;27.820;2023-07-30T00:18:13;98570.63;;;19.03;100.00
9905;BME280;4991;43.566;27.820;2023-07-30T00:20:38;98577.00;;;19.07;100.00
9905;BME280;4991;43.566;27.820;2023-07-30T00:23:04;98582.50;;;19.07;100.00
9905;BME280;4991;43.566;27.820;2023-07-30T00:25:30;98579.69;;;19.03;100.00
9905;BME280;4991;43.566;27.820;2023-07-30T00:27:55;98568.44;;;18.93;100.00
9905;BME280;4991;43.566;27.820;2023-07-30T00:30:21;98562.41;;;18.87;100.00
9905;BME280;4991;43.566;27.820;2023-07-30T00:32:46;98575.06;;;18.88;100.00
9905;BME280;4991;43.566;27.820;2023-07-30T00:35:12;98569.03;;;18.83;100.00
9905;BME280;4991;43.566;27.820;2023-07-30T00:37:38;98560.97;;;18.74;100.00
9905;BME280;4991;43.566;27.820;2023-07-30T00:40:04;98560.22;;;18.77;100.00
9905;BME280;4991;43.566;27.820;2023-07-30T00:42:31;98561.97;;;18.85;100.00
9905;BME280;4991;43.566;27.820;2023-07-30T00:44:56;98564.38;;;18.87;100.00
9905;BME280;4991;43.566;27.820;2023-07-30T00:47:23;98560.66;;;18.79;100.00
9905;BME280;4991;43.566;27.820;2023-07-30T00:49:49;98564.31;;;18.83;100.00
9905;BME280;4991;43.566;27.820;2023-07-30T00:52:21;98568.59;;;18.81;100.00
9905;BME280;4991;43.566;27.820;2023-07-30T00:54:48;98567.84;;;18.84;100.00
9905;BME280;4991;43.566;27.820;2023-07-30T00:57:16;98563.94;;;18.85;100.00
9905;BME280;4991;43.566;27.820;2023-07-30T00:59:43;98569.47;;;18.85;100.00
9905;BME280;4991;43.566;27.820;2023-07-30T01:02:09;98563.44;;;18.79;100.00
9905;BME280;4991;43.566;27.820;2023-07-30T01:04:35;98564.22;;;18.80;100.00
9905;BME280;4991;43.566;27.820;2023-07-30T01:07:06;98564.22;;;18.80;100.00
9905;BME280;4991;43.566;27.820;2023-07-30T01:09:32;98565.91;;;18.84;100.00
9905;BME280;4991;43.566;27.820;2023-07-30T01:11:59;98569.59;;;18.92;100.00
9905;BME280;4991;43.566;27.820;2023-07-30T01:14:26;98555.44;;;18.93;100.00
9905;BME280;4991;43.566;27.820;2023-07-30T01:16:52;98560.22;;;18.96;100.00
9905;BME280;4991;43.566;27.820;2023-07-30T01:19:18;98556.41;;;18.82;100.00
9905;BME280;4991;43.566;27.820;2023-07-30T01:21:44;98570.25;;;18.85;100.00
9905;BME280;4991;43.566;27.820;2023-07-30T01:24:09;98563.22;;;18.88;100.00
9905;BME280;4991;43.566;27.820;2023-07-30T01:26:48;98567.16;;;18.87;100.00
9905;BME280;4991;43.566;27.820;2023-07-30T01:32:04;98557.03;;;18.75;100.00
9905;BME280;4991;43.566;27.820;2023-07-30T01:34:34;98553.41;;;18.71;100.00
9905;BME280;4991;43.566;27.820;2023-07-30T01:37:01;98542.03;;;18.54;100.00
9905;BME280;4991;43.566;27.820;2023-07-30T01:39:27;98553.19;;;18.61;100.00
9905;BME280;4991;43.566;27.820;2023-07-30T01:41:54;98554.88;;;18.65;100.00
9905;BME280;4991;43.566;27.820;2023-07-30T01:44:20;98546.53;;;18.62;100.00
9905;BME280;4991;43.566;27.820;2023-07-30T01:46:46;98551.97;;;18.58;100.00
9905;BME280;4991;43.566;27.820;2023-07-30T01:49:11;98551.50;;;18.56;100.00
9905;BME280;4991;43.566;27.820;2023-07-30T01:51:37;98538.91;;;18.55;100.00
9905;BME280;4991;43.566;27.820;2023-07-30T01:54:02;98550.28;;;18.54;100.00
9905;BME280;4991;43.566;27.820;2023-07-30T01:56:28;98558.56;;;18.54;100.00
9905;BME280;4991;43.566;27.820;2023-07-30T01:58:54;98554.13;;;18.49;100.00
9905;BME280;4991;43.566;27.820;2023-07-30T02:01:20;98555.38;;;18.52;100.00
9905;BME280;4991;43.566;27.820;2023-07-30T02:03:45;98549.84;;;18.52;100.00
9905;BME280;4991;43.566;27.820;2023-07-30T02:06:11;98548.47;;;18.61;100.00
9905;BME280;4991;43.566;27.820;2023-07-30T02:08:37;98548.84;;;18.60;100.00
9905;BME280;4991;43.566;27.820;2023-07-30T02:11:03;98554.88;;;18.65;100.00
9905;BME280;4991;43.566;27.820;2023-07-30T02:13:29;98564.00;;;18.69;100.00
9905;BME280;4991;43.566;27.820;2023-07-30T02:15:54;98566.59;;;18.62;100.00
9905;BME280;4991;43.566;27.820;2023-07-30T02:18:20;98565.84;;;18.62;100.00
9905;BME280;4991;43.566;27.820;2023-07-30T02:20:46;98565.03;;;18.61;100.00
9905;BME280;4991;43.566;27.820;2023-07-30T02:23:14;98572.50;;;18.61;100.00
9905;BME280;4991;43.566;27.820;2023-07-30T02:25:40;98563.72;;;18.55;100.00
9905;BME280;4991;43.566;27.820;2023-07-30T02:28:06;98570.38;;;18.54;100.00
9905;BME280;4991;43.566;27.820;2023-07-30T02:30:33;98566.69;;;18.47;100.00
9905;BME280;4991;43.566;27.820;2023-07-30T02:32:59;98561.66;;;18.52;100.00
9905;BME280;4991;43.566;27.820;2023-07-30T02:35:25;98568.34;;;18.51;100.00
9905;BME280;4991;43.566;27.820;2023-07-30T02:37:51;98571.91;;;18.52;100.00
9905;BME280;4991;43.566;27.820;2023-07-30T02:40:17;98566.31;;;18.48;100.00
9905;BME280;4991;43.566;27.820;2023-07-30T02:42:43;98576.19;;;18.49;100.00
9905;BME280;4991;43.566;27.820;2023-07-30T02:45:09;98562.47;;;18.53;100.00
9905;BME280;4991;43.566;27.820;2023-07-30T02:47:35;98566.69;;;18.47;100.00
9905;BME280;4991;43.566;27.820;2023-07-30T02:50:02;98559.13;;;18.44;100.00
9905;BME280;4991;43.566;27.820;2023-07-30T02:52:27;98562.16;;;18.39;100.00
9905;BME280;4991;43.566;27.820;2023-07-30T02:54:53;98562.34;;;18.30;100.00
9905;BME280;4991;43.566;27.820;2023-07-30T02:57:18;98555.56;;;18.28;100.00
9905;BME280;4991;43.566;27.820;2023-07-30T02:59:44;98561.00;;;18.24;100.00
9905;BME280;4991;43.566;27.820;2023-07-30T03:02:10;98567.69;;;18.23;100.00
9905;BME280;4991;43.566;27.820;2023-07-30T03:04:35;98563.63;;;18.17;100.00
9905;BME280;4991;43.566;27.820;2023-07-30T03:07:01;98575.22;;;18.26;100.00
9905;BME280;4991;43.566;27.820;2023-07-30T03:09:27;98569.91;;;18.18;100.00
9905;BME280;4991;43.566;27.820;2023-07-30T03:11:53;98571.66;;;18.26;100.00
9905;BME280;4991;43.566;27.820;2023-07-30T03:14:19;98573.44;;;18.34;100.00
9905;BME280;4991;43.566;27.820;2023-07-30T03:16:46;98568.22;;;18.29;100.00
9905;BME280;4991;43.566;27.820;2023-07-30T03:19:12;98584.03;;;18.32;100.00
9905;BME280;4991;43.566;27.820;2023-07-30T03:21:38;98579.16;;;18.25;100.00
9905;BME280;4991;43.566;27.820;2023-07-30T03:24:04;98575.59;;;18.25;100.00
9905;BME280;4991;43.566;27.820;2023-07-30T03:26:29;98570.53;;;18.27;100.00
9905;BME280;4991;43.566;27.820;2023-07-30T03:28:55;98581.00;;;18.37;100.00
9905;BME280;4991;43.566;27.820;2023-07-30T03:31:20;98587.50;;;18.44;100.00
9905;BME280;4991;43.566;27.820;2023-07-30T03:33:46;98586.72;;;18.44;100.00
9905;BME280;4991;43.566;27.820;2023-07-30T03:36:12;98585.78;;;18.55;100.00
9905;BME280;4991;43.566;27.820;2023-07-30T03:38:42;98583.06;;;18.59;100.00
9905;BME280;4991;43.566;27.820;2023-07-30T03:41:09;98580.13;;;18.67;100.00
9905;BME280;4991;43.566;27.820;2023-07-30T03:43:35;98575.47;;;18.71;100.00
9905;BME280;4991;43.566;27.820;2023-07-30T03:46:01;98573.91;;;18.70;100.00
9905;BME280;4991;43.566;27.820;2023-07-30T03:48:27;98565.53;;;18.67;100.00
9905;BME280;4991;43.566;27.820;2023-07-30T03:50:53;98568.38;;;18.70;100.00
9905;BME280;4991;43.566;27.820;2023-07-30T03:53:19;98563.56;;;18.67;100.00
9905;BME280;4991;43.566;27.820;2023-07-30T03:55:45;98584.19;;;18.73;100.00
9905;BME280;4991;43.566;27.820;2023-07-30T03:58:11;98584.94;;;18.70;100.00
9905;BME280;4991;43.566;27.820;2023-07-30T04:00:37;98589.00;;;18.76;100.00
9905;BME280;4991;43.566;27.820;2023-07-30T04:03:04;98584.03;;;18.85;100.00
9905;BME280;4991;43.566;27.820;2023-07-30T04:05:30;98583.34;;;18.88;100.00
9905;BME280;4991;43.566;27.820;2023-07-30T04:07:56;98580.28;;;18.93;100.00
9905;BME280;4991;43.566;27.820;2023-07-30T04:10:22;98577.56;;;18.97;100.00
9905;BME280;4991;43.566;27.820;2023-07-30T04:12:48;98578.16;;;19.06;100.00
9905;BME280;4991;43.566;27.820;2023-07-30T04:15:15;98577.44;;;19.09;100.00
9905;BME280;4991;43.566;27.820;2023-07-30T04:17:41;98582.72;;;19.17;100.00
9905;BME280;4991;43.566;27.820;2023-07-30T04:20:08;98581.31;;;19.27;100.00
9905;BME280;4991;43.566;27.820;2023-07-30T04:22:35;98583.88;;;19.36;100.00
9905;BME280;4991;43.566;27.820;2023-07-30T04:25:01;98588.00;;;19.45;100.00
9905;BME280;4991;43.566;27.820;2023-07-30T04:27:27;98579.00;;;19.48;100.00
9905;BME280;4991;43.566;27.820;2023-07-30T04:29:52;98587.03;;;19.57;100.00
9905;BME280;4991;43.566;27.820;2023-07-30T04:32:18;98584.53;;;19.71;100.00
9905;BME280;4991;43.566;27.820;2023-07-30T04:34:43;98590.25;;;19.81;100.00
9905;BME280;4991;43.566;27.820;2023-07-30T04:37:09;98591.22;;;19.92;100.00
9905;BME280;4991;43.566;27.820;2023-07-30T04:39:35;98589.03;;;20.05;100.00
9905;BME280;4991;43.566;27.820;2023-07-30T04:42:02;98586.31;;;20.08;100.00
9905;BME280;4991;43.566;27.820;2023-07-30T04:44:28;98601.19;;;20.23;100.00
9905;BME280;4991;43.566;27.820;2023-07-30T04:46:54;98601.81;;;20.35;100.00
9905;BME280;4991;43.566;27.820;2023-07-30T04:49:19;98601.84;;;20.39;100.00
9905;BME280;4991;43.566;27.820;2023-07-30T04:51:45;98596.00;;;20.44;100.00
9905;BME280;4991;43.566;27.820;2023-07-30T04:54:10;98604.09;;;20.56;100.00
9905;BME280;4991;43.566;27.820;2023-07-30T04:56:36;98608.16;;;20.66;100.00
9905;BME280;4991;43.566;27.820;2023-07-30T04:59:02;98596.78;;;20.71;100.00
9905;BME280;4991;43.566;27.820;2023-07-30T05:01:28;98596.91;;;20.81;100.00
9905;BME280;4991;43.566;27.820;2023-07-30T05:03:54;98608.50;;;20.90;100.00
9905;BME280;4991;43.566;27.820;2023-07-30T05:06:20;98607.34;;;20.95;100.00
9905;BME280;4991;43.566;27.820;2023-07-30T05:08:46;98603.56;;;21.06;100.00
9905;BME280;4991;43.566;27.820;2023-07-30T05:11:11;98608.50;;;21.20;100.00
9905;BME280;4991;43.566;27.820;2023-07-30T05:13:37;98607.00;;;21.29;100.00
9905;BME280;4991;43.566;27.820;2023-07-30T05:16:03;98604.75;;;21.38;100.00
9905;BME280;4991;43.566;27.820;2023-07-30T05:18:28;98609.69;;;21.55;100.00
9905;BME280;4991;43.566;27.820;2023-07-30T05:20:55;98617.28;;;21.62;100.00
9905;BME280;4991;43.566;27.820;2023-07-30T05:23:21;98615.09;;;21.78;100.00
9905;BME280;4991;43.566;27.820;2023-07-30T05:25:46;98613.94;;;21.83;100.00
9905;BME280;4991;43.566;27.820;2023-07-30T05:28:12;98622.41;;;21.97;100.00
9905;BME280;4991;43.566;27.820;2023-07-30T05:30:38;98620.13;;;22.09;100.00
9905;BME280;4991;43.566;27.820;2023-07-30T05:33:04;98622.56;;;22.18;100.00
9905;BME280;4991;43.566;27.820;2023-07-30T05:35:30;98616.72;;;22.30;100.00
9905;BME280;4991;43.566;27.820;2023-07-30T05:37:55;98606.94;;;22.46;100.00
9905;BME280;4991;43.566;27.820;2023-07-30T05:40:21;98610.25;;;22.66;100.00
9905;BME280;4991;43.566;27.820;2023-07-30T05:42:47;98618.25;;;22.78;100.00
9905;BME280;4991;43.566;27.820;2023-07-30T05:45:13;98615.88;;;22.80;100.00
9905;BME280;4991;43.566;27.820;2023-07-30T05:47:38;98617.53;;;22.95;100.00
9905;BME280;4991;43.566;27.820;2023-07-30T05:50:04;98609.69;;;23.11;100.00
9905;BME280;4991;43.566;27.820;2023-07-30T05:52:30;98610.50;;;23.22;100.00
9905;BME280;4991;43.566;27.820;2023-07-30T05:54:56;98610.97;;;23.38;100.00
9905;BME280;4991;43.566;27.820;2023-07-30T05:57:21;98613.81;;;23.52;100.00
9905;BME280;4991;43.566;27.820;2023-07-30T05:59:47;98609.06;;;23.63;100.00
9905;BME280;4991;43.566;27.820;2023-07-30T06:02:13;98609.09;;;23.77;100.00
9905;BME280;4991;43.566;27.820;2023-07-30T06:04:38;98601.94;;;23.83;100.00
9905;BME280;4991;43.566;27.820;2023-07-30T06:07:04;98610.72;;;23.96;100.00
9905;BME280;4991;43.566;27.820;2023-07-30T06:09:30;98593.63;;;23.94;100.00
9905;BME280;4991;43.566;27.820;2023-07-30T06:11:58;98601.59;;;24.09;100.00
9905;BME280;4991;43.566;27.820;2023-07-30T06:14:25;98613.13;;;24.29;100.00
9905;BME280;4991;43.566;27.820;2023-07-30T06:16:51;98606.75;;;24.39;100.00
9905;BME280;4991;43.566;27.820;2023-07-30T06:19:17;98607.94;;;24.52;100.00
9905;BME280;4991;43.566;27.820;2023-07-30T06:21:43;98596.34;;;24.61;100.00
9905;BME280;4991;43.566;27.820;2023-07-30T06:24:08;98607.50;;;24.75;100.00
9905;BME280;4991;43.566;27.820;2023-07-30T06:26:34;98598.31;;;24.81;100.00
9905;BME280;4991;43.566;27.820;2023-07-30T06:29:00;98602.25;;;24.98;100.00
9905;BME280;4991;43.566;27.820;2023-07-30T06:31:25;98599.44;;;25.05;100.00
9905;BME280;4991;43.566;27.820;2023-07-30T06:33:51;98598.97;;;25.20;100.00
9905;BME280;4991;43.566;27.820;2023-07-30T06:36:16;98600.53;;;25.28;100.00
9905;BME280;4991;43.566;27.820;2023-07-30T06:38:42;98595.31;;;25.41;100.00
9905;BME280;4991;43.566;27.820;2023-07-30T06:41:08;98597.25;;;25.51;100.00
9905;BME280;4991;43.566;27.820;2023-07-30T06:43:33;98595.28;;;25.52;100.00
9905;BME280;4991;43.566;27.820;2023-07-30T06:45:59;98588.84;;;25.58;100.00
9905;BME280;4991;43.566;27.820;2023-07-30T06:48:24;98587.22;;;25.64;100.00
9905;BME280;4991;43.566;27.820;2023-07-30T06:50:50;98596.69;;;25.77;100.00
9905;BME280;4991;43.566;27.820;2023-07-30T06:53:16;98589.03;;;25.88;100.00
9905;BME280;4991;43.566;27.820;2023-07-30T06:55:41;98577.47;;;25.90;100.00
9905;BME280;4991;43.566;27.820;2023-07-30T06:58:07;98586.97;;;25.99;100.00
9905;BME280;4991;43.566;27.820;2023-07-30T07:00:33;98588.09;;;26.09;100.00
9905;BME280;4991;43.566;27.820;2023-07-30T07:02:58;98590.88;;;26.09;100.00
9905;BME280;4991;43.566;27.820;2023-07-30T07:05:24;98592.50;;;26.10;100.00
9905;BME280;4991;43.566;27.820;2023-07-30T07:07:49;98582.88;;;26.14;100.00
9905;BME280;4991;43.566;27.820;2023-07-30T07:10:15;98572.84;;;26.20;100.00
9905;BME280;4991;43.566;27.820;2023-07-30T07:12:41;98573.16;;;26.29;100.00
9905;BME280;4991;43.566;27.820;2023-07-30T07:15:07;98579.84;;;26.39;100.00
9905;BME280;4991;43.566;27.820;2023-07-30T07:17:32;98576.63;;;26.44;100.00
9905;BME280;4991;43.566;27.820;2023-07-30T07:19:58;98572.50;;;26.55;100.00
9905;BME280;4991;43.566;27.820;2023-07-30T07:22:24;98570.84;;;26.61;100.00
9905;BME280;4991;43.566;27.820;2023-07-30T07:24:51;98574.38;;;26.69;100.00
9905;BME280;4991;43.566;27.820;2023-07-30T07:27:20;98575.88;;;26.77;100.00
9905;BME280;4991;43.566;27.820;2023-07-30T07:29:48;98567.81;;;26.86;100.00
9905;BME280;4991;43.566;27.820;2023-07-30T07:32:14;98573.28;;;26.93;100.00
9905;BME280;4991;43.566;27.820;2023-07-30T07:34:40;98572.00;;;27.01;100.00
9905;BME280;4991;43.566;27.820;2023-07-30T07:37:06;98568.38;;;27.04;100.00
9905;BME280;4991;43.566;27.820;2023-07-30T07:39:32;98567.50;;;27.11;100.00
9905;BME280;4991;43.566;27.820;2023-07-30T07:41:58;98559.00;;;27.18;100.00
9905;BME280;4991;43.566;27.820;2023-07-30T07:44:24;98556.53;;;27.23;100.00
9905;BME280;4991;43.566;27.820;2023-07-30T07:46:50;98556.47;;;27.30;100.00
9905;BME280;4991;43.566;27.820;2023-07-30T07:49:16;98550.09;;;27.30;100.00
9905;BME280;4991;43.566;27.820;2023-07-30T07:51:42;98547.28;;;27.30;100.00
9905;BME280;4991;43.566;27.820;2023-07-30T07:54:08;98547.09;;;27.44;100.00
9905;BME280;4991;43.566;27.820;2023-07-30T07:56:33;98549.38;;;27.52;100.00
9905;BME280;4991;43.566;27.820;2023-07-30T07:58:59;98552.81;;;27.63;100.00
9905;BME280;4991;43.566;27.820;2023-07-30T08:01:25;98528.56;;;27.53;100.00
9905;BME280;4991;43.566;27.820;2023-07-30T08:03:51;98547.09;;;27.70;100.00
9905;BME280;4991;43.566;27.820;2023-07-30T08:06:17;98535.44;;;27.75;100.00
9905;BME280;4991;43.566;27.820;2023-07-30T08:08:42;98540.88;;;27.82;100.00
9905;BME280;4991;43.566;27.820;2023-07-30T08:11:08;98542.06;;;27.85;100.00
9905;BME280;4991;43.566;27.820;2023-07-30T08:13:35;98550.00;;;27.90;100.00
9905;BME280;4991;43.566;27.820;2023-07-30T08:16:01;98545.25;;;27.87;100.00
9905;BME280;4991;43.566;27.820;2023-07-30T08:18:27;98549.16;;;27.93;100.00
9905;BME280;4991;43.566;27.820;2023-07-30T08:20:54;98547.38;;;28.03;100.00
9905;BME280;4991;43.566;27.820;2023-07-30T08:23:20;98543.25;;;28.11;100.00
9905;BME280;4991;43.566;27.820;2023-07-30T08:25:46;98537.59;;;28.14;100.00
9905;BME280;4991;43.566;27.820;2023-07-30T08:28:11;98550.56;;;28.28;100.00
9905;BME280;4991;43.566;27.820;2023-07-30T08:30:37;98546.19;;;28.27;100.00
9905;BME280;4991;43.566;27.820;2023-07-30T08:33:03;98547.31;;;28.29;100.00
9905;BME280;4991;43.566;27.820;2023-07-30T08:35:28;98550.00;;;28.36;100.00
9905;BME280;4991;43.566;27.820;2023-07-30T08:37:54;98548.38;;;28.39;100.00
9905;BME280;4991;43.566;27.820;2023-07-30T08:40:23;98540.63;;;28.46;100.00
9905;BME280;4991;43.566;27.820;2023-07-30T08:42:50;98535.69;;;28.54;100.00
9905;BME280;4991;43.566;27.820;2023-07-30T08:45:17;98542.66;;;28.65;100.00
9905;BME280;4991;43.566;27.820;2023-07-30T08:47:44;98543.25;;;28.76;100.00
9905;BME280;4991;43.566;27.820;2023-07-30T08:50:10;98539.16;;;28.81;100.00
9905;BME280;4991;43.566;27.820;2023-07-30T08:52:36;98530.19;;;28.89;100.00
9905;BME280;4991;43.566;27.820;2023-07-30T08:55:03;98536.00;;;28.98;100.00
9905;BME280;4991;43.566;27.820;2023-07-30T08:57:30;98535.66;;;28.96;100.00
9905;BME280;4991;43.566;27.820;2023-07-30T09:00:06;98525.50;;;29.02;100.00
9905;BME280;4991;43.566;27.820;2023-07-30T09:02:41;98527.78;;;29.07;100.00
9905;BME280;4991;43.566;27.820;2023-07-30T09:05:08;98527.31;;;29.13;100.00
9905;BME280;4991;43.566;27.820;2023-07-30T09:07:34;98517.59;;;29.17;100.00
9905;BME280;4991;43.566;27.820;2023-07-30T09:10:00;98517.28;;;29.31;100.00
9905;BME280;4991;43.566;27.820;2023-07-30T09:12:33;98517.22;;;29.35;100.00
9905;BME280;4991;43.566;27.820;2023-07-30T09:14:59;98530.53;;;29.47;100.00
9905;BME280;4991;43.566;27.820;2023-07-30T09:17:25;98507.25;;;29.50;100.00
9905;BME280;4991;43.566;27.820;2023-07-30T09:19:52;98521.09;;;29.57;100.00
9905;BME280;4991;43.566;27.820;2023-07-30T09:22:30;98514.88;;;29.65;100.00
9905;BME280;4991;43.566;27.820;2023-07-30T09:24:57;98516.63;;;29.59;100.00
9905;BME280;4991;43.566;27.820;2023-07-30T09:27:24;98517.31;;;29.63;100.00
9905;BME280;4991;43.566;27.820;2023-07-30T09:29:59;98519.56;;;29.72;100.00
9905;BME280;4991;43.566;27.820;2023-07-30T09:32:27;98515.53;;;29.73;100.00
9905;BME280;4991;43.566;27.820;2023-07-30T09:34:53;98488.59;;;29.75;100.00
9905;BME280;4991;43.566;27.820;2023-07-30T09:37:19;98497.63;;;29.83;100.00
9905;BME280;4991;43.566;27.820;2023-07-30T09:39:47;98506.03;;;29.67;100.00
9905;BME280;4991;43.566;27.820;2023-07-30T09:42:13;98511.91;;;29.88;100.00
9905;BME280;4991;43.566;27.820;2023-07-30T09:44:38;98512.53;;;29.96;100.00
9905;BME280;4991;43.566;27.820;2023-07-30T09:47:08;98511.28;;;30.13;100.00
9905;BME280;4991;43.566;27.820;2023-07-30T09:49:38;98503.53;;;31.31;100.00
9905;BME280;4991;43.566;27.820;2023-07-30T09:52:04;98494.38;;;33.36;100.00
9905;BME280;4991;43.566;27.820;2023-07-30T09:54:31;98494.13;;;35.78;100.00
9905;BME280;4991;43.566;27.820;2023-07-30T09:56:58;98495.41;;;38.42;100.00
9905;BME280;4991;43.566;27.820;2023-07-30T09:59:24;98509.25;;;39.77;94.46
9905;BME280;4991;43.566;27.820;2023-07-30T10:01:50;98495.00;;;40.20;86.71
9905;BME280;4991;43.566;27.820;2023-07-30T10:04:22;98500.78;;;40.31;84.57
9905;BME280;4991;43.566;27.820;2023-07-30T10:06:53;98488.59;;;42.05;78.16
9905;BME280;4991;43.566;27.820;2023-07-30T10:09:20;98493.22;;;42.19;70.88
9905;BME280;4991;43.566;27.820;2023-07-30T10:11:49;98493.16;;;42.98;67.70
9905;BME280;4991;43.566;27.820;2023-07-30T10:14:18;98497.97;;;42.00;64.61
9905;BME280;4991;43.566;27.820;2023-07-30T10:16:50;98492.97;;;40.90;65.05
9905;BME280;4991;43.566;27.820;2023-07-30T10:19:16;98486.81;;;41.96;64.63
9905;BME280;4991;43.566;27.820;2023-07-30T10:21:44;98482.66;;;41.37;66.37
9905;BME280;4991;43.566;27.820;2023-07-30T10:24:09;98481.09;;;41.19;65.52
9905;BME280;4991;43.566;27.820;2023-07-30T10:26:36;98481.78;;;40.81;68.19
9905;BME280;4991;43.566;27.820;2023-07-30T10:29:16;98480.31;;;41.35;60.52
9905;BME280;4991;43.566;27.820;2023-07-30T10:31:43;98486.81;;;41.25;62.35
9905;BME280;4991;43.566;27.820;2023-07-30T10:34:12;98477.19;;;41.17;62.10
9905;BME280;4991;43.566;27.820;2023-07-30T10:39:21;98486.41;;;42.44;57.54
9905;BME280;4991;43.566;27.820;2023-07-30T10:41:53;98487.38;;;42.63;56.64
9905;BME280;4991;43.566;27.820;2023-07-30T10:44:25;98484.19;;;43.18;56.41
9905;BME280;4991;43.566;27.820;2023-07-30T10:46:55;98479.94;;;43.30;55.04
9905;BME280;4991;43.566;27.820;2023-07-30T10:49:21;98471.22;;;43.41;53.90
9905;BME280;4991;43.566;27.820;2023-07-30T10:51:47;98475.56;;;42.83;52.13
9905;BME280;4991;43.566;27.820;2023-07-30T10:54:12;98466.88;;;42.94;53.29
9905;BME280;4991;43.566;27.820;2023-07-30T10:56:38;98464.59;;;42.19;53.87
9905;BME280;4991;43.566;27.820;2023-07-30T10:59:06;98473.53;;;43.13;53.47
9905;BME280;4991;43.566;27.820;2023-07-30T11:01:39;98467.06;;;41.54;56.92
9905;BME280;4991;43.566;27.820;2023-07-30T11:04:13;98462.91;;;41.22;60.95
9905;BME280;4991;43.566;27.820;2023-07-30T11:06:39;98457.91;;;42.68;60.39
9905;BME280;4991;43.566;27.820;2023-07-30T11:09:05;98461.72;;;43.82;54.48
9905;BME280;4991;43.566;27.820;2023-07-30T11:11:31;98469.16;;;44.63;52.46
9905;BME280;4991;43.566;27.820;2023-07-30T11:13:57;98468.41;;;43.95;51.37
9905;BME280;4991;43.566;27.820;2023-07-30T11:16:24;98461.91;;;43.35;52.77
9905;BME280;4991;43.566;27.820;2023-07-30T11:18:50;98456.81;;;43.53;52.14
9905;BME280;4991;43.566;27.820;2023-07-30T11:21:17;98464.88;;;43.24;51.90
9905;BME280;4991;43.566;27.820;2023-07-30T11:23:44;98461.94;;;42.95;51.77
9905;BME280;4991;43.566;27.820;2023-07-30T11:26:17;98455.84;;;43.09;53.08
9905;BME280;4991;43.566;27.820;2023-07-30T11:28:44;98461.78;;;43.17;53.57
9905;BME280;4991;43.566;27.820;2023-07-30T11:31:18;98456.69;;;43.93;52.09
9905;BME280;4991;43.566;27.820;2023-07-30T11:33:46;98459.69;;;43.53;49.38
9905;BME280;4991;43.566;27.820;2023-07-30T11:36:16;98456.25;;;44.08;48.63
9905;BME280;4991;43.566;27.820;2023-07-30T11:38:43;98450.34;;;44.00;50.01
9905;BME280;4991;43.566;27.820;2023-07-30T11:41:10;98447.56;;;43.65;48.86
9905;BME280;4991;43.566;27.820;2023-07-30T11:43:41;98445.06;;;43.56;49.78
9905;BME280;4991;43.566;27.820;2023-07-30T11:46:15;98443.19;;;43.59;50.82
9905;BME280;4991;43.566;27.820;2023-07-30T11:48:43;98438.84;;;44.24;48.78
9905;BME280;4991;43.566;27.820;2023-07-30T11:51:38;98438.78;;;43.52;49.13
9905;BME280;4991;43.566;27.820;2023-07-30T11:54:04;98434.63;;;42.31;53.00
9905;BME280;4991;43.566;27.820;2023-07-30T11:56:33;98425.06;;;42.17;54.01
9905;BME280;4991;43.566;27.820;2023-07-30T11:59:05;98424.44;;;42.47;54.71
9905;BME280;4991;43.566;27.820;2023-07-30T12:01:34;98424.97;;;43.80;51.77
9905;BME280;4991;43.566;27.820;2023-07-30T12:04:01;98420.47;;;45.07;49.16
9905;BME280;4991;43.566;27.820;2023-07-30T12:06:48;98414.69;;;43.36;52.09
9905;BME280;4991;43.566;27.820;2023-07-30T12:09:19;98419.00;;;42.32;53.82
9905;BME280;4991;43.566;27.820;2023-07-30T12:11:56;98412.44;;;43.29;54.25
9905;BME280;4991;43.566;27.820;2023-07-30T12:14:25;98411.16;;;44.45;51.53
9905;BME280;4991;43.566;27.820;2023-07-30T12:17:01;98406.22;;;44.96;51.14
9905;BME280;4991;43.566;27.820;2023-07-30T12:19:27;98398.44;;;44.41;51.82
9905;BME280;4991;43.566;27.820;2023-07-30T12:21:53;98394.78;;;44.40;51.34
9905;BME280;4991;43.566;27.820;2023-07-30T12:24:18;98396.34;;;43.99;51.54
9905;BME280;4991;43.566;27.820;2023-07-30T12:26:44;98400.78;;;44.42;51.97
9905;BME280;4991;43.566;27.820;2023-07-30T12:29:10;98393.19;;;42.89;54.68
9905;BME280;4991;43.566;27.820;2023-07-30T12:31:36;98383.78;;;43.78;53.51
9905;BME280;4991;43.566;27.820;2023-07-30T12:34:01;98385.13;;;43.23;53.91
9905;BME280;4991;43.566;27.820;2023-07-30T12:36:28;98380.56;;;43.03;55.51
9905;BME280;4991;43.566;27.820;2023-07-30T12:38:56;98378.91;;;42.43;57.90
9905;BME280;4991;43.566;27.820;2023-07-30T12:41:22;98376.50;;;43.53;55.80
9905;BME280;4991;43.566;27.820;2023-07-30T12:43:52;98387.28;;;43.11;56.22
9905;BME280;4991;43.566;27.820;2023-07-30T12:46:18;98382.56;;;42.84;56.10
9905;BME280;4991;43.566;27.820;2023-07-30T12:48:44;98383.84;;;43.18;56.72
9905;BME280;4991;43.566;27.820;2023-07-30T12:51:10;98378.56;;;43.28;55.22
9905;BME280;4991;43.566;27.820;2023-07-30T12:53:35;98380.53;;;43.38;54.48
9905;BME280;4991;43.566;27.820;2023-07-30T12:56:01;98381.09;;;43.85;53.92
9905;BME280;4991;43.566;27.820;2023-07-30T12:58:27;98361.63;;;42.60;56.35
9905;BME280;4991;43.566;27.820;2023-07-30T13:00:52;98364.56;;;41.97;57.78
9905;BME280;4991;43.566;27.820;2023-07-30T13:03:18;98371.59;;;41.85;58.24
9905;BME280;4991;43.566;27.820;2023-07-30T13:05:44;98368.06;;;42.66;57.33